Time;durP1;ratioP1;P1;durP2;ratioP2;P2;SDS_P1;SDS_P2;PMS_P1;PMS_P2;Temp;Humidity;BMP_temperature;BMP_pressure;BME280_temperature;BME280_humidity;BME280_pressure;Samples;Min_cycle;Max_cycle;Signal;HPM_P1;HPM_P2
2022/12/03 00:03:34;;;;;;;47.65;22.38;;;3.80;55.40;;;2.30;61.38;102286.75;12151982;19;20021;-84
2022/12/03 00:07:36;;;;;;;43.20;22.63;;;3.80;55.50;;;1.93;61.25;102222.16;12140785;19;20010;-84
2022/12/03 00:11:38;;;;;;;39.83;20.33;;;3.90;55.60;;;2.24;61.42;102268.66;12150069;19;20279;-84
2022/12/03 00:15:39;;;;;;;41.33;20.02;;;3.80;55.50;;;2.33;61.24;102286.75;12151068;19;20115;-84
2022/12/03 00:19:41;;;;;;;37.75;19.90;;;4.00;55.70;;;2.15;61.12;102247.16;12166402;19;20878;-83
2022/12/03 00:23:43;;;;;;;39.20;20.90;;;4.10;55.80;;;2.27;61.08;102264.41;12159142;19;20015;-84
2022/12/03 00:27:45;;;;;;;47.00;22.70;;;3.90;55.50;;;2.25;61.08;102262.69;12164583;19;20022;-84
2022/12/03 00:31:48;;;;;;;62.40;29.42;;;3.80;55.40;;;2.20;61.12;102260.94;12165488;19;20590;-82
2022/12/03 00:35:50;;;;;;;44.78;24.63;;;3.80;54.90;;;2.27;61.23;102277.28;12162602;19;20023;-84
2022/12/03 00:39:52;;;;;;;44.47;22.60;;;3.80;55.30;;;2.12;61.34;102254.88;12167615;19;20042;-84
2022/12/03 00:43:56;;;;;;;39.78;20.58;;;3.70;55.20;;;2.26;61.26;102280.69;12164163;19;20021;-83
2022/12/03 00:47:58;;;;;;;43.45;22.85;;;3.80;55.50;;;2.12;61.28;102251.44;12169835;19;20400;-83
2022/12/03 00:52:00;;;;;;;48.30;22.80;;;3.90;55.40;;;2.09;61.19;102248.84;12161956;19;20022;-83
2022/12/03 00:56:01;;;;;;;37.33;20.35;;;3.80;55.30;;;2.24;61.46;102271.25;12157606;19;20422;-83
2022/12/03 01:00:05;;;;;;;45.30;20.45;;;3.70;55.50;;;2.14;61.23;102253.19;12164573;19;20852;-83
2022/12/03 01:04:07;;;;;;;42.95;22.23;;;3.80;55.40;;;2.27;61.01;102273.81;12162971;19;20395;-83
2022/12/03 01:08:10;;;;;;;37.90;19.75;;;3.80;55.30;;;2.18;61.07;102254.91;12167032;19;20588;-83
2022/12/03 01:12:12;;;;;;;39.50;19.85;;;3.70;55.40;;;2.25;61.06;102272.97;12161098;19;20475;-83
2022/12/03 01:16:14;;;;;;;38.28;21.38;;;3.70;55.30;;;2.22;61.32;102269.53;12162664;19;20102;-83
2022/12/03 01:20:15;;;;;;;35.53;21.17;;;3.80;55.30;;;2.22;61.00;102272.09;12162890;19;20449;-83
2022/12/03 01:24:18;;;;;;;38.78;22.90;;;3.70;55.10;;;2.24;61.20;102271.25;12157138;19;20014;-83
2022/12/03 01:28:20;;;;;;;39.10;21.52;;;3.70;55.00;;;2.18;61.17;102265.19;12162025;19;20029;-83
2022/12/03 01:32:22;;;;;;;41.13;22.77;;;3.70;55.10;;;2.21;60.97;102272.97;12161012;19;20022;-83
2022/12/03 01:36:24;;;;;;;35.35;20.02;;;3.70;55.20;;;2.02;61.27;102236.78;12156791;19;20035;-83
2022/12/03 01:40:26;;;;;;;30.80;18.25;;;3.70;55.30;;;2.18;61.16;102259.19;12161777;19;20018;-83
2022/12/03 01:44:32;;;;;;;30.90;17.77;;;3.80;55.50;;;2.09;61.18;102243.72;12156975;19;20046;-84
2022/12/03 01:48:36;;;;;;;43.10;24.25;;;3.70;55.40;;;2.21;61.14;102264.34;12157765;19;20014;-83
2022/12/03 01:52:39;;;;;;;61.27;28.77;;;3.80;54.90;;;2.16;61.06;102248.91;12157484;19;20561;-83
2022/12/03 01:56:41;;;;;;;41.30;23.83;;;3.80;54.90;;;2.19;60.84;102259.22;12154995;19;20019;-83
2022/12/03 02:00:43;;;;;;;41.72;23.73;;;3.70;54.90;;;2.16;61.17;102261.78;12156871;19;20444;-83
2022/12/03 02:04:44;;;;;;;44.33;24.05;;;3.70;54.80;;;2.01;60.90;102235.94;12152556;19;20578;-83
2022/12/03 02:08:48;;;;;;;44.92;25.38;;;3.70;55.00;;;2.07;61.25;102254.00;12155762;19;20412;-83
2022/12/03 02:13:09;;;;;;;35.35;20.17;;;3.70;54.70;;;2.06;61.14;102252.28;12158186;19;20029;-83
2022/12/03 02:17:12;;;;;;;41.00;22.63;;;3.70;55.10;;;2.05;61.03;102244.53;12153314;19;20101;-83
2022/12/03 02:22:15;;;;;;;35.20;20.08;;;3.60;55.00;;;2.10;61.00;102263.44;12154941;19;20970;-83
2022/12/03 02:26:17;;;;;;;36.15;19.88;;;3.60;55.10;;;2.00;61.09;102241.97;12156626;19;20280;-83
2022/12/03 02:30:22;;;;;;;36.00;19.48;;;3.70;55.20;;;2.06;61.03;102252.28;12158891;19;20047;-83
2022/12/03 02:34:42;;;;;;;34.25;20.60;;;3.60;55.30;;;2.02;61.09;102247.09;12158366;19;20019;-83
2022/12/03 02:38:46;;;;;;;38.35;20.67;;;3.60;55.20;;;1.98;61.05;102228.19;12158145;19;20015;-83
2022/12/03 02:42:54;;;;;;;36.30;19.67;;;3.90;55.40;;;2.08;61.00;102250.59;12156783;19;20014;-83
2022/12/03 02:46:55;;;;;;;34.28;17.90;;;3.60;55.10;;;2.13;61.02;102259.19;12147686;19;20420;-83
2022/12/03 02:51:03;;;;;;;36.22;19.88;;;3.70;55.30;;;2.10;60.98;102248.84;12155204;19;20429;-83
2022/12/03 02:55:06;;;;;;;34.33;19.45;;;3.70;55.30;;;2.10;61.07;102238.53;12154587;19;20018;-83
2022/12/03 02:59:08;;;;;;;37.53;21.65;;;3.70;55.20;;;2.12;61.00;102252.31;12155086;19;20018;-83
2022/12/03 03:03:11;;;;;;;36.85;20.60;;;3.70;55.10;;;2.12;61.25;102248.88;12156125;19;20026;-83
2022/12/03 03:07:13;;;;;;;36.58;21.63;;;3.80;55.10;;;1.95;60.87;102225.63;12133530;19;20015;-83
2022/12/03 03:11:16;;;;;;;33.15;17.65;;;4.00;55.20;;;2.15;61.12;102251.47;12131197;19;20018;-83
2022/12/03 03:15:18;;;;;;;31.50;18.27;;;3.70;55.30;;;2.13;60.97;102248.91;12131397;19;20326;-83
2022/12/03 03:19:24;;;;;;;31.73;17.48;;;3.70;55.30;;;2.09;61.06;102236.84;12137777;19;20454;-83
2022/12/03 03:23:27;;;;;;;30.85;16.77;;;4.00;55.40;;;2.17;60.88;102249.75;12138204;19;20781;-83
2022/12/03 03:27:29;;;;;;;36.63;19.83;;;3.70;55.30;;;2.14;60.86;102235.13;12140572;19;20018;-83
2022/12/03 03:31:30;;;;;;;36.05;19.67;;;4.00;55.10;;;2.10;60.97;102229.97;12140133;19;20014;-83
2022/12/03 03:35:33;;;;;;;42.92;22.90;;;4.00;55.30;;;2.10;61.12;102242.84;12139012;19;20044;-83
2022/12/03 03:39:35;;;;;;;43.80;21.40;;;3.70;54.80;;;2.02;60.95;102235.06;12139978;19;20039;-83
2022/12/03 03:43:39;;;;;;;36.50;19.60;;;3.70;55.00;;;2.08;61.02;102234.22;12147209;19;20863;-83
2022/12/03 03:47:42;;;;;;;41.55;23.67;;;3.70;55.30;;;1.99;60.99;102219.59;12151119;19;20018;-84
2022/12/03 03:51:44;;;;;;;44.40;21.33;;;3.70;55.00;;;1.91;60.97;102213.56;12160434;19;20006;-83
2022/12/03 03:55:46;;;;;;;37.95;21.08;;;3.80;55.40;;;1.97;60.89;102227.34;12163815;19;20383;-83
2022/12/03 03:59:48;;;;;;;35.58;18.52;;;3.60;55.30;;;1.94;60.92;102216.16;12165760;19;20026;-83
2022/12/03 04:03:51;;;;;;;31.48;18.55;;;3.60;55.50;;;1.76;61.03;102186.88;12163449;19;20316;-83
2022/12/03 04:07:53;;;;;;;35.50;19.73;;;3.60;55.70;;;1.93;61.12;102209.28;12168356;19;20402;-83
2022/12/03 04:16:15;;;;;;;33.45;19.02;;;3.60;55.70;;;1.96;61.12;102214.44;12158093;19;20026;-83
2022/12/03 04:20:17;;;;;;;30.20;18.58;;;3.50;55.80;;;1.89;61.11;102205.84;12163499;19;20888;-83
2022/12/03 04:24:19;;;;;;;36.70;21.40;;;3.80;56.00;;;1.89;61.20;102204.97;12167557;19;20015;-83
2022/12/03 04:37:02;;;;;;;35.75;19.67;;;3.80;56.20;;;1.89;61.03;102202.38;12165355;19;20014;-83
2022/12/03 04:41:03;;;;;;;29.02;17.33;;;3.40;56.20;;;1.92;61.06;102205.84;12168536;19;20018;-83
2022/12/03 04:45:06;;;;;;;31.20;18.45;;;3.50;56.30;;;1.83;60.92;102192.06;12168404;19;20364;-83
2022/12/03 04:49:07;;;;;;;28.98;17.05;;;3.50;56.30;;;1.92;61.09;102202.41;12173068;19;20015;-83
2022/12/03 04:53:09;;;;;;;33.42;18.08;;;3.60;56.40;;;1.95;61.18;102217.88;12168679;19;20053;-83
2022/12/03 04:57:12;;;;;;;33.15;17.77;;;3.50;56.40;;;1.92;61.05;102200.69;12163752;19;20030;-83
2022/12/03 05:01:13;;;;;;;35.50;20.17;;;3.50;56.40;;;1.89;60.91;102197.22;12167367;19;20046;-83
2022/12/03 05:05:15;;;;;;;31.67;18.75;;;3.50;56.40;;;1.66;61.08;102151.63;12162706;19;20667;-83
2022/12/03 05:09:17;;;;;;;34.80;17.80;;;3.50;56.50;;;1.92;61.00;102194.69;12171760;19;20571;-83
2022/12/03 05:13:18;;;;;;;32.45;18.48;;;3.50;56.50;;;1.91;61.04;102193.81;12169651;19;20444;-83
2022/12/03 05:17:20;;;;;;;35.45;17.88;;;3.40;56.50;;;1.86;60.92;102181.75;12170980;19;20824;-83
2022/12/03 05:21:23;;;;;;;36.70;20.17;;;3.40;56.50;;;1.76;60.90;102171.44;12181897;19;20018;-83
2022/12/03 05:25:24;;;;;;;34.55;18.65;;;3.40;56.60;;;1.87;61.12;102191.22;12178208;19;20387;-83
2022/12/03 05:29:26;;;;;;;33.63;17.17;;;3.40;56.60;;;1.57;61.08;102132.69;12183203;19;20367;-83
2022/12/03 05:33:28;;;;;;;32.95;18.40;;;3.40;56.60;;;1.85;61.18;102178.34;12161574;19;20798;-83
2022/12/03 05:37:30;;;;;;;35.30;19.42;;;3.60;56.90;;;1.87;61.13;102183.50;12157711;19;20022;-83
2022/12/03 05:45:52;;;;;;;34.67;18.98;;;3.40;56.90;;;1.71;60.99;102152.53;12162370;19;20022;-83
2022/12/03 05:49:54;;;;;;;34.08;15.60;;;3.40;56.90;;;1.89;61.15;102186.94;12165404;19;20018;-82
2022/12/03 05:53:56;;;;;;;30.60;18.25;;;3.40;56.90;;;1.86;61.29;102179.19;12162903;19;20022;-84
2022/12/03 05:57:58;;;;;;;28.52;16.95;;;3.40;56.90;;;1.67;61.25;102142.19;12145435;19;20456;-84
2022/12/03 06:02:00;;;;;;;33.95;19.77;;;3.40;56.90;;;1.80;61.11;102153.41;12145498;19;20368;-84
2022/12/03 06:06:17;;;;;;;29.85;17.23;;;3.40;56.90;;;1.80;61.26;102163.72;12113731;19;20492;-84
2022/12/03 06:10:22;;;;;;;30.90;17.52;;;3.40;56.90;;;1.81;61.12;102160.28;12109225;19;20018;-85
2022/12/03 06:14:24;;;;;;;31.17;16.98;;;3.40;56.90;;;1.91;61.22;102182.66;12157687;19;20022;-84
2022/12/03 06:18:25;;;;;;;32.70;17.90;;;3.40;56.90;;;1.70;61.24;102144.78;12157013;19;20022;-82
2022/12/03 06:22:27;;;;;;;37.28;18.50;;;3.40;56.90;;;1.80;61.10;102161.16;12160476;19;20010;-82
2022/12/03 06:26:29;;;;;;;31.08;17.15;;;3.50;56.90;;;1.87;61.21;102175.78;12149364;19;20289;-85
2022/12/03 06:30:33;;;;;;;36.80;19.13;;;3.70;57.10;;;1.87;61.31;102176.63;12143916;19;20015;-82
2022/12/03 06:34:34;;;;;;;35.00;20.05;;;3.40;57.00;;;1.86;61.06;102180.03;12135001;19;20026;-86
2022/12/03 06:38:36;;;;;;;35.08;19.05;;;3.60;57.10;;;1.78;61.23;102168.84;12133325;19;20562;-85
2022/12/03 06:42:38;;;;;;;36.33;19.35;;;3.40;57.00;;;1.88;61.23;102186.06;12134753;19;20039;-85
2022/12/03 06:46:39;;;;;;;37.20;19.00;;;3.60;57.10;;;1.86;61.34;102189.50;12112861;19;20893;-84
2022/12/03 06:50:41;;;;;;;31.65;17.83;;;3.40;57.00;;;1.84;61.27;102178.34;12104999;19;20308;-84
2022/12/03 06:54:43;;;;;;;35.78;19.73;;;3.50;57.10;;;1.79;61.16;102175.75;12125910;19;20829;-85
2022/12/03 06:58:45;;;;;;;38.55;20.00;;;3.30;57.10;;;1.65;61.41;102152.50;12141196;19;20466;-84
2022/12/03 07:02:47;;;;;;;34.50;18.65;;;3.30;57.10;;;1.74;61.45;102167.97;12142193;19;20364;-83
2022/12/03 07:06:48;;;;;;;31.90;17.98;;;3.50;57.20;;;1.68;61.38;102157.66;12138029;19;20098;-83
2022/12/03 07:10:50;;;;;;;36.72;19.58;;;3.30;57.20;;;1.77;61.49;102172.28;12134222;19;20021;-83
2022/12/03 07:14:52;;;;;;;41.22;21.25;;;3.30;57.20;;;1.79;61.15;102174.88;12127953;19;20017;-83
2022/12/03 07:18:54;;;;;;;40.70;20.52;;;3.20;57.10;;;1.55;61.50;102141.28;12131617;19;20296;-85
2022/12/03 07:22:56;;;;;;;39.95;22.38;;;3.40;57.30;;;1.68;61.37;102164.53;12117297;19;20019;-83
2022/12/03 07:26:58;;;;;;;37.22;19.65;;;3.60;57.40;;;1.78;61.38;102186.88;12141084;19;20403;-84
2022/12/03 07:31:00;;;;;;;35.15;19.00;;;3.30;57.20;;;1.72;61.21;102179.13;12135696;19;20034;-83
2022/12/03 07:35:06;;;;;;;40.40;19.35;;;3.20;57.20;;;1.58;61.43;102157.63;12139045;19;20409;-84
2022/12/03 07:39:07;;;;;;;38.53;20.58;;;3.20;57.20;;;1.66;61.47;102184.25;12135106;19;20033;-86
2022/12/03 07:43:10;;;;;;;37.95;18.63;;;3.20;57.20;;;1.58;61.35;102162.75;12150593;19;20034;-82
2022/12/03 07:47:11;;;;;;;34.63;19.50;;;3.20;57.10;;;1.55;61.53;102161.03;12158267;19;20477;-82
2022/12/03 07:51:14;;;;;;;32.95;18.02;;;3.20;57.10;;;1.59;61.48;102162.75;12156724;19;20015;-82
2022/12/03 07:55:15;;;;;;;30.27;17.70;;;3.20;57.20;;;1.57;61.35;102151.59;12122726;19;20007;-81
2022/12/03 07:59:18;;;;;;;41.08;21.58;;;3.20;57.20;;;1.66;61.50;102163.66;12133270;19;20026;-82
2022/12/03 08:03:20;;;;;;;38.75;19.52;;;3.50;57.40;;;1.65;61.60;102156.81;12142833;19;20399;-82
2022/12/03 08:07:22;;;;;;;36.55;20.00;;;3.30;57.30;;;1.63;61.45;102149.06;12151055;19;20022;-82
2022/12/03 08:11:26;;;;;;;36.55;18.60;;;3.30;57.30;;;1.66;61.59;102146.50;12170510;19;20330;-83
2022/12/03 08:15:28;;;;;;;33.73;19.13;;;3.40;57.40;;;1.75;61.45;102171.41;12159968;19;20396;-82
2022/12/03 08:19:31;;;;;;;34.47;18.00;;;3.20;57.30;;;1.72;61.66;102159.38;12157628;19;20042;-82
2022/12/03 08:23:33;;;;;;;31.80;17.52;;;3.30;57.40;;;1.77;61.52;102159.41;12160594;19;20011;-82
2022/12/03 08:27:35;;;;;;;31.10;16.92;;;3.30;57.40;;;1.74;61.48;102147.38;12165010;19;20021;-82
2022/12/03 08:31:39;;;;;;;37.10;20.20;;;3.30;57.40;;;1.76;61.64;102148.25;12163179;19;20419;-82
2022/12/03 08:35:43;;;;;;;36.22;18.30;;;3.50;57.40;;;1.69;61.36;102133.63;12163158;19;20014;-82
2022/12/03 08:39:48;;;;;;;35.08;17.55;;;3.30;57.30;;;1.71;61.74;102143.94;12173910;19;20074;-82
2022/12/03 08:43:50;;;;;;;35.25;19.02;;;3.30;57.40;;;1.70;61.69;102143.09;12174453;19;20022;-82
2022/12/03 08:48:00;;;;;;;27.35;15.80;;;3.40;57.50;;;1.68;61.62;102137.06;12175297;19;20769;-82
2022/12/03 08:52:18;;;;;;;38.15;19.17;;;3.40;57.40;;;1.79;61.56;102154.28;12174980;19;20018;-82
2022/12/03 08:56:26;;;;;;;39.47;20.63;;;3.40;57.50;;;1.77;61.72;102138.81;12182103;19;20022;-82
2022/12/03 09:00:27;;;;;;;38.38;20.80;;;3.40;57.50;;;1.84;61.61;102139.72;12172654;19;20018;-82
2022/12/03 09:04:45;;;;;;;38.35;20.17;;;3.40;57.60;;;1.76;61.67;102130.22;12166590;19;20368;-82
2022/12/03 09:08:46;;;;;;;44.45;23.33;;;3.50;57.60;;;1.91;61.71;102154.31;12166918;19;20472;-82
2022/12/03 09:12:49;;;;;;;44.75;22.05;;;3.40;57.60;;;1.88;61.51;102141.44;12172279;19;20018;-82
2022/12/03 09:16:54;;;;;;;38.40;17.67;;;3.40;57.50;;;1.89;61.63;102141.44;12166803;19;20793;-81
2022/12/03 09:20:56;;;;;;;36.78;18.42;;;3.50;57.50;;;1.83;61.66;102125.09;12176238;19;20413;-82
2022/12/03 09:24:58;;;;;;;34.75;17.52;;;3.50;57.40;;;1.86;61.67;102125.97;12169330;19;20019;-83
2022/12/03 09:29:00;;;;;;;40.80;19.88;;;3.50;57.40;;;1.98;61.73;102143.19;12166404;19;20023;-81
2022/12/03 09:33:02;;;;;;;37.72;19.98;;;3.50;57.50;;;1.98;61.56;102140.63;12174507;19;20115;-82
2022/12/03 09:37:04;;;;;;;36.22;17.77;;;3.50;57.40;;;1.76;61.57;102098.47;12172723;19;20014;-81
2022/12/03 09:41:06;;;;;;;39.15;18.05;;;3.50;57.40;;;1.84;61.76;102108.81;12175936;19;20786;-81
2022/12/03 09:45:13;;;;;;;38.65;19.42;;;3.50;57.40;;;2.00;61.77;102133.75;12168367;19;20944;-82
2022/12/03 09:49:17;;;;;;;34.67;17.73;;;3.60;57.40;;;1.92;61.91;102113.13;12169394;19;20920;-81
2022/12/03 09:53:24;;;;;;;37.13;17.80;;;3.70;57.40;;;1.96;61.78;102116.56;12168552;19;20022;-81
2022/12/03 09:57:26;;;;;;;43.25;20.67;;;3.60;57.40;;;2.02;61.58;102124.28;12167209;19;20031;-83
2022/12/03 10:01:29;;;;;;;37.50;19.02;;;3.50;57.40;;;1.96;61.72;102106.25;12166739;19;20460;-81
2022/12/03 10:05:33;;;;;;;31.38;15.00;;;3.80;57.50;;;1.97;61.81;102107.97;12166127;19;20014;-82
2022/12/03 10:09:35;;;;;;;37.70;18.20;;;3.60;57.40;;;1.97;61.82;102097.66;12178555;19;20311;-81
2022/12/03 10:13:37;;;;;;;28.73;15.65;;;3.60;57.50;;;2.02;61.67;102106.25;12173883;19;20094;-82
2022/12/03 10:17:40;;;;;;;40.42;18.30;;;3.60;57.40;;;1.95;61.85;102078.78;12176110;19;20338;-81
2022/12/03 10:21:41;;;;;;;33.70;16.90;;;3.80;57.50;;;2.10;61.86;102101.13;12178376;19;20300;-81
2022/12/03 10:25:56;;;;;;;37.30;19.05;;;3.60;57.40;;;2.09;61.65;102091.69;12177085;19;20019;-81
2022/12/03 10:30:02;;;;;;;40.47;19.13;;;3.70;57.40;;;2.07;61.75;102083.09;12178374;19;20894;-82
2022/12/03 10:34:04;;;;;;;33.15;16.13;;;3.80;57.40;;;2.10;61.85;102077.94;12177452;19;20419;-81
2022/12/03 10:38:18;;;;;;;31.48;16.65;;;3.70;57.40;;;2.17;61.79;102090.84;12177450;19;20019;-81
2022/12/03 10:42:21;;;;;;;41.47;18.80;;;3.70;57.40;;;2.15;61.65;102082.25;12175301;19;20022;-81
2022/12/03 10:46:23;;;;;;;40.45;19.67;;;3.70;57.40;;;2.20;61.63;102088.25;12175524;19;20046;-81
2022/12/03 10:50:25;;;;;;;37.65;19.33;;;3.70;57.40;;;2.19;61.84;102083.97;12169328;19;20042;-82
2022/12/03 10:54:30;;;;;;;36.65;16.80;;;3.80;57.40;;;2.09;61.82;102065.94;12172915;19;20312;-82
2022/12/03 10:58:38;;;;;;;32.25;14.98;;;3.80;57.40;;;2.21;62.06;102086.53;12171611;19;20018;-81
2022/12/03 11:02:40;;;;;;;34.63;15.48;;;3.70;57.40;;;2.13;61.77;102065.94;12165257;19;20392;-82
2022/12/03 11:06:42;;;;;;;37.97;16.80;;;3.80;57.40;;;2.17;61.80;102054.78;12161642;19;20053;-81
2022/12/03 11:10:44;;;;;;;32.67;15.80;;;3.80;57.30;;;2.11;61.82;102039.31;12175316;19;20948;-81
2022/12/03 11:15:04;;;;;;;31.77;14.70;;;3.80;57.30;;;2.34;62.04;102074.53;12175396;19;20014;-81
2022/12/03 11:19:11;;;;;;;37.75;16.90;;;3.80;57.30;;;2.35;61.75;102061.66;12178085;19;20878;-81
2022/12/03 11:23:12;;;;;;;37.45;18.63;;;3.90;57.30;;;2.35;61.63;102060.78;12166019;19;20377;-81
2022/12/03 11:27:18;;;;;;;29.30;13.95;;;3.90;57.20;;;2.34;61.72;102057.34;12172738;19;20285;-82
2022/12/03 11:31:39;;;;;;;35.42;16.65;;;3.90;57.20;;;2.27;61.66;102041.88;12181283;19;20014;-82
2022/12/03 11:36:03;;;;;;;31.70;17.23;;;3.90;57.20;;;2.33;61.77;102053.06;12179644;19;20026;-81
2022/12/03 11:40:17;;;;;;;35.43;15.83;;;3.90;57.20;;;2.33;61.82;102047.06;12177253;19;20015;-81
2022/12/03 11:44:31;;;;;;;32.00;15.45;;;3.90;57.20;;;2.33;61.95;102042.75;12177208;19;20022;-80
2022/12/03 11:48:41;;;;;;;34.72;15.98;;;3.90;57.20;;;2.33;61.86;102032.44;12175574;19;20302;-82
2022/12/03 11:52:44;;;;;;;32.60;16.50;;;4.20;57.40;;;2.33;61.79;102023.88;12174767;19;20042;-81
2022/12/03 11:56:48;;;;;;;34.50;15.90;;;3.90;57.20;;;2.30;61.93;102013.56;12173250;19;20883;-81
2022/12/03 12:00:53;;;;;;;36.83;16.20;;;3.90;57.20;;;2.27;61.79;102010.94;12173828;19;20010;-81
2022/12/03 12:04:55;;;;;;;;;;;4.00;57.20;;;2.34;61.82;102041.03;12174072;19;20061;-81
2022/12/03 12:08:59;;;;;;;28.00;14.68;;;4.10;57.40;;;2.32;61.85;102030.75;12171428;19;19947;-82
2022/12/03 12:13:00;;;;;;;36.03;16.35;;;4.00;57.20;;;2.26;61.82;102016.97;12170803;19;20014;-81
2022/12/03 12:17:03;;;;;;;29.00;15.23;;;3.90;57.20;;;2.27;62.00;102019.56;12176589;19;20018;-81
2022/12/03 12:21:46;;;;;;;30.92;14.50;;;3.90;57.30;;;2.35;61.79;102030.75;12184113;19;20375;-81
2022/12/03 12:25:48;;;;;;;30.77;14.60;;;3.90;57.30;;;2.23;61.76;102002.38;12179248;19;20444;-81
2022/12/03 12:29:53;;;;;;;27.02;14.07;;;3.90;57.30;;;2.41;61.83;102027.28;12184317;19;20018;-82
2022/12/03 12:33:55;;;;;;;32.35;15.90;;;3.90;57.30;;;2.31;61.68;102016.13;12187825;19;20010;-81
2022/12/03 12:38:06;;;;;;;32.97;16.45;;;3.90;57.40;;;2.40;61.81;102021.28;12186428;19;20054;-82
2022/12/03 12:42:33;;;;;;;32.53;15.50;;;3.80;57.30;;;2.40;61.84;102021.28;12185403;19;20356;-81
2022/12/03 12:46:36;;;;;;;30.05;15.35;;;3.90;57.30;;;2.37;61.63;102012.69;12179483;19;20150;-81
2022/12/03 12:50:41;;;;;;;38.40;17.92;;;4.00;57.40;;;2.26;61.63;101986.06;12182432;19;20313;-81
2022/12/03 12:54:42;;;;;;;34.78;16.73;;;4.00;57.40;;;2.36;61.84;102008.38;12190752;19;20015;-83
2022/12/03 12:58:44;;;;;;;40.22;17.83;;;3.90;57.30;;;2.35;61.69;101989.50;12197280;19;20021;-82
2022/12/03 13:03:00;;;;;;;38.92;17.00;;;4.10;57.40;;;2.34;61.93;101992.06;12185375;19;20018;-82
2022/12/03 13:07:01;;;;;;;37.80;19.48;;;3.90;57.40;;;2.17;61.76;101953.44;12174468;19;20451;-82
2022/12/03 13:11:03;;;;;;;39.22;16.08;;;3.90;57.40;;;2.34;61.98;101984.31;12176152;19;20111;-82
2022/12/03 13:15:37;;;;;;;33.03;15.05;;;3.90;57.40;;;2.36;61.88;101987.78;12171783;19;20784;-82
2022/12/03 13:19:39;;;;;;;30.75;15.45;;;3.90;57.40;;;2.30;61.76;101980.06;12167538;19;20685;-81
2022/12/03 13:23:41;;;;;;;40.65;18.63;;;3.90;57.50;;;2.35;61.77;101981.75;12180339;19;20018;-82
2022/12/03 13:27:45;;;;;;;38.63;17.42;;;4.10;57.60;;;2.30;61.90;101969.75;12182342;19;20034;-82
2022/12/03 13:32:00;;;;;;;30.27;15.47;;;3.90;57.60;;;2.17;61.66;101950.84;12179950;19;20035;-82
2022/12/03 13:36:05;;;;;;;37.58;17.92;;;3.90;57.60;;;1.99;61.80;101923.38;12181127;19;20287;-82
2022/12/03 13:40:29;;;;;;;30.80;14.98;;;3.80;57.70;;;2.20;61.78;101962.00;12185748;19;20487;-82
2022/12/03 13:44:32;;;;;;;31.67;15.40;;;3.90;57.80;;;2.21;61.69;101962.84;12184979;19;20019;-81
2022/12/03 13:48:34;;;;;;;35.70;16.27;;;3.80;57.80;;;2.27;61.91;101962.00;12180306;19;20020;-81
2022/12/03 13:52:36;;;;;;;29.77;14.82;;;3.80;57.90;;;2.14;61.88;101941.41;12180230;19;20308;-82
2022/12/03 13:56:38;;;;;;;33.55;15.25;;;3.80;57.90;;;2.27;61.88;101962.88;12137402;19;20388;-81
2022/12/03 14:00:40;;;;;;;30.67;15.45;;;3.80;57.90;;;2.30;61.92;101972.31;12165020;19;20556;-81
2022/12/03 14:04:41;;;;;;;32.80;15.48;;;4.00;58.10;;;2.35;61.78;101976.59;12173969;19;21315;-82
2022/12/03 14:08:43;;;;;;;30.25;12.73;;;3.80;58.00;;;2.27;61.92;101951.69;12181006;19;20026;-81
2022/12/03 14:12:45;;;;;;;31.73;13.73;;;3.80;57.90;;;2.28;62.08;101954.28;12181289;19;20091;-81
2022/12/03 14:16:46;;;;;;;27.20;12.85;;;3.80;57.90;;;2.37;61.88;101966.28;12157894;19;20614;-81
2022/12/03 14:20:48;;;;;;;33.28;15.50;;;3.80;57.90;;;2.20;62.11;101941.38;12175278;19;20348;-81
2022/12/03 14:24:51;;;;;;;29.13;13.05;;;3.90;57.90;;;2.30;62.05;101956.84;12174849;19;20047;-82
2022/12/03 14:28:53;;;;;;;32.60;14.38;;;4.10;58.00;;;2.34;61.93;101961.13;12176606;19;20350;-83
2022/12/03 14:32:55;;;;;;;33.17;16.30;;;3.90;58.00;;;2.39;62.00;101969.72;12171172;19;20018;-82
2022/12/03 14:36:57;;;;;;;29.75;14.15;;;4.00;58.10;;;2.32;61.85;101965.41;12159367;19;20017;-82
2022/12/03 14:40:58;;;;;;;28.45;14.02;;;3.90;58.00;;;2.34;62.08;101953.41;12168559;19;20320;-82
2022/12/03 14:45:00;;;;;;;30.85;15.90;;;3.90;58.00;;;2.40;61.98;101963.69;12170737;19;20411;-82
2022/12/03 14:49:01;;;;;;;27.65;14.27;;;3.90;58.30;;;2.37;61.69;101959.41;12179690;19;20018;-82
2022/12/03 14:53:03;;;;;;;32.67;13.38;;;3.90;58.00;;;2.37;61.99;101967.13;12164798;19;20408;-81
2022/12/03 14:57:05;;;;;;;30.60;14.20;;;4.00;58.00;;;2.39;62.13;101956.84;12165727;19;20545;-81
2022/12/03 15:01:06;;;;;;;30.00;14.80;;;3.90;58.00;;;2.48;61.81;101966.25;12168586;19;20277;-81
2022/12/03 15:05:08;;;;;;;36.08;16.38;;;4.00;58.00;;;2.37;61.89;101958.53;12166748;19;20258;-81
2022/12/03 15:09:10;;;;;;;33.10;16.52;;;4.00;58.00;;;2.44;62.03;101974.00;12171401;19;20022;-81
2022/12/03 15:13:12;;;;;;;34.47;14.43;;;3.90;58.00;;;2.29;61.90;101947.38;12176781;19;20014;-82
2022/12/03 15:17:14;;;;;;;33.40;16.23;;;4.10;58.10;;;2.43;62.00;101967.16;12163921;19;20022;-81
2022/12/03 15:21:16;;;;;;;34.58;16.05;;;3.90;58.10;;;2.37;61.98;101968.84;12157140;19;20471;-81
2022/12/03 15:25:23;;;;;;;37.22;17.92;;;4.10;58.10;;;2.42;61.97;101970.56;12150473;19;20484;-82
2022/12/03 15:29:29;;;;;;;31.60;16.02;;;4.00;58.10;;;2.46;62.07;101979.19;12167195;19;20028;-82
2022/12/03 15:33:31;;;;;;;33.08;15.10;;;4.00;58.00;;;2.08;61.96;101915.66;12170467;19;20034;-82
2022/12/03 15:37:33;;;;;;;33.63;16.50;;;4.30;58.20;;;2.22;62.09;101943.97;12166421;19;20475;-81
2022/12/03 15:41:35;;;;;;;30.10;13.63;;;4.00;58.00;;;2.42;62.04;101969.72;12170501;19;20475;-82
2022/12/03 15:45:37;;;;;;;27.85;14.27;;;4.00;58.00;;;2.39;62.25;101962.00;12171082;19;20023;-82
2022/12/03 15:49:38;;;;;;;28.55;13.45;;;4.00;58.00;;;2.53;62.03;101978.28;12172651;19;20018;-82
2022/12/03 15:53:41;;;;;;;27.38;13.85;;;4.00;57.90;;;2.54;62.13;101981.72;12178514;19;20120;-82
2022/12/03 15:57:43;;;;;;;26.42;13.45;;;4.00;57.90;;;2.56;62.19;101983.44;12185976;19;20490;-82
2022/12/03 16:01:44;;;;;;;26.83;13.85;;;4.00;57.90;;;2.56;61.95;101972.25;12184442;19;20874;-83
2022/12/03 16:05:46;;;;;;;30.90;14.65;;;4.00;57.90;;;2.35;62.25;101937.06;12181539;19;20014;-82
2022/12/03 16:09:48;;;;;;;28.65;14.38;;;4.00;57.90;;;2.57;62.07;101972.28;12183508;19;20849;-83
2022/12/03 16:13:49;;;;;;;26.50;13.57;;;4.10;57.90;;;2.54;62.14;101959.41;12178768;19;20022;-83
2022/12/03 16:17:51;;;;;;;34.72;16.50;;;4.20;57.90;;;2.56;62.03;101961.94;12173648;19;20022;-83
2022/12/03 16:21:52;;;;;;;26.30;14.85;;;4.10;58.20;;;2.52;61.89;101961.09;12180770;19;20022;-82
2022/12/03 16:25:54;;;;;;;30.67;15.05;;;4.10;57.90;;;2.25;62.06;101917.34;12173085;19;20010;-83
2022/12/03 16:29:56;;;;;;;30.77;15.50;;;4.10;57.90;;;2.55;62.13;101960.25;12192472;19;20011;-82
2022/12/03 16:33:58;;;;;;;37.65;16.77;;;4.10;58.00;;;2.23;62.02;101907.03;12175726;19;20018;-82
2022/12/03 16:38:00;;;;;;;31.58;14.77;;;4.00;57.90;;;2.14;61.92;101902.75;12186340;19;20380;-83
2022/12/03 16:42:02;;;;;;;28.48;13.93;;;4.00;57.90;;;2.52;62.07;101958.53;12185099;19;20029;-83
2022/12/03 16:46:19;;;;;;;29.98;16.02;;;4.00;58.10;;;2.14;62.04;101895.03;12181015;19;20014;-82
2022/12/03 16:50:21;;;;;;;33.92;16.92;;;4.00;57.90;;;2.49;62.00;101955.97;12181184;19;20022;-83
2022/12/03 16:54:23;;;;;;;30.95;15.30;;;4.00;58.00;;;2.52;62.12;101973.16;12182620;19;20461;-82
2022/12/03 16:58:24;;;;;;;28.05;15.63;;;4.00;58.00;;;2.47;62.09;101962.84;12178744;19;20017;-82
2022/12/03 17:02:27;;;;;;;41.80;17.50;;;4.00;58.00;;;2.45;62.10;101951.66;12184017;19;20018;-82